Terminal Aerodrome Forecast
Issued by NWS Huntsville, AL

Home | Current Version | Previous Version | Text Only | Print | Product List | Glossary On
Versions: 1 2 3 4 5 6 7 8 9 10 11 12 13 14 15
000
FTUS44 KHUN 211720
TAFHSV
TAF
KHSV 211720Z 2118/2218 13011G17KT P6SM SCT060 SCT250
     FM220500 11010KT P6SM BKN050 OVC100
     FM221200 11013G20KT 6SM -SHRA OVC020=

USA.gov is the U.S. government's official web portal to all federal, state and local government web resources and services.